sensor_id;sensor_type;location;lat;lon;timestamp;P1;durP1;ratioP1;P2;durP2;ratioP2
81544;SDS011;70990;50.618;7.346;2023-12-07T00:02:24;9.52;;;3.58;;
81544;SDS011;70990;50.618;7.346;2023-12-07T00:04:51;10.65;;;4.55;;
81544;SDS011;70990;50.618;7.346;2023-12-07T00:07:17;9.68;;;4.32;;
81544;SDS011;70990;50.618;7.346;2023-12-07T00:09:44;7.65;;;3.55;;
81544;SDS011;70990;50.618;7.346;2023-12-07T00:12:10;10.30;;;3.50;;
81544;SDS011;70990;50.618;7.346;2023-12-07T00:14:37;10.93;;;4.30;;
81544;SDS011;70990;50.618;7.346;2023-12-07T00:17:04;10.10;;;4.07;;
81544;SDS011;70990;50.618;7.346;2023-12-07T00:19:31;8.07;;;3.60;;
81544;SDS011;70990;50.618;7.346;2023-12-07T00:21:58;9.05;;;4.13;;
81544;SDS011;70990;50.618;7.346;2023-12-07T00:24:24;10.00;;;4.15;;
81544;SDS011;70990;50.618;7.346;2023-12-07T00:26:51;10.70;;;3.90;;
81544;SDS011;70990;50.618;7.346;2023-12-07T00:29:17;10.00;;;3.30;;
81544;SDS011;70990;50.618;7.346;2023-12-07T00:31:44;8.20;;;3.67;;
81544;SDS011;70990;50.618;7.346;2023-12-07T00:34:11;10.18;;;4.07;;
81544;SDS011;70990;50.618;7.346;2023-12-07T00:36:38;10.63;;;3.97;;
81544;SDS011;70990;50.618;7.346;2023-12-07T00:39:04;11.27;;;4.18;;
81544;SDS011;70990;50.618;7.346;2023-12-07T00:41:31;7.90;;;3.88;;
81544;SDS011;70990;50.618;7.346;2023-12-07T00:43:57;10.18;;;3.97;;
81544;SDS011;70990;50.618;7.346;2023-12-07T00:46:24;9.40;;;3.50;;
81544;SDS011;70990;50.618;7.346;2023-12-07T00:48:51;10.27;;;3.97;;
81544;SDS011;70990;50.618;7.346;2023-12-07T00:51:17;12.27;;;3.92;;
81544;SDS011;70990;50.618;7.346;2023-12-07T00:53:44;9.77;;;3.65;;
81544;SDS011;70990;50.618;7.346;2023-12-07T00:56:10;8.23;;;3.28;;
81544;SDS011;70990;50.618;7.346;2023-12-07T00:58:37;8.45;;;3.50;;
81544;SDS011;70990;50.618;7.346;2023-12-07T01:01:03;10.35;;;3.75;;
81544;SDS011;70990;50.618;7.346;2023-12-07T01:03:30;9.68;;;3.70;;
81544;SDS011;70990;50.618;7.346;2023-12-07T01:05:57;10.05;;;4.10;;
81544;SDS011;70990;50.618;7.346;2023-12-07T01:08:24;7.88;;;3.40;;
81544;SDS011;70990;50.618;7.346;2023-12-07T01:10:50;8.38;;;3.60;;
81544;SDS011;70990;50.618;7.346;2023-12-07T01:13:17;9.43;;;3.88;;
81544;SDS011;70990;50.618;7.346;2023-12-07T01:15:44;8.10;;;3.10;;
81544;SDS011;70990;50.618;7.346;2023-12-07T01:18:10;8.23;;;3.63;;
81544;SDS011;70990;50.618;7.346;2023-12-07T01:20:37;9.07;;;3.50;;
81544;SDS011;70990;50.618;7.346;2023-12-07T01:23:03;9.27;;;4.13;;
81544;SDS011;70990;50.618;7.346;2023-12-07T01:25:30;9.85;;;3.88;;
81544;SDS011;70990;50.618;7.346;2023-12-07T01:27:56;10.35;;;3.33;;
81544;SDS011;70990;50.618;7.346;2023-12-07T01:30:23;7.32;;;3.15;;
81544;SDS011;70990;50.618;7.346;2023-12-07T01:32:50;9.90;;;4.22;;
81544;SDS011;70990;50.618;7.346;2023-12-07T01:35:16;7.70;;;3.25;;
81544;SDS011;70990;50.618;7.346;2023-12-07T01:37:44;8.35;;;3.80;;
81544;SDS011;70990;50.618;7.346;2023-12-07T01:40:10;8.80;;;3.28;;
81544;SDS011;70990;50.618;7.346;2023-12-07T01:42:37;6.85;;;3.10;;
81544;SDS011;70990;50.618;7.346;2023-12-07T01:45:05;9.35;;;3.63;;
81544;SDS011;70990;50.618;7.346;2023-12-07T01:47:32;7.53;;;3.70;;
81544;SDS011;70990;50.618;7.346;2023-12-07T01:50:01;9.32;;;3.38;;
81544;SDS011;70990;50.618;7.346;2023-12-07T01:52:28;7.85;;;3.40;;
81544;SDS011;70990;50.618;7.346;2023-12-07T01:54:55;6.88;;;3.17;;
81544;SDS011;70990;50.618;7.346;2023-12-07T01:57:22;6.60;;;2.97;;
81544;SDS011;70990;50.618;7.346;2023-12-07T01:59:50;8.80;;;3.05;;
81544;SDS011;70990;50.618;7.346;2023-12-07T02:02:16;7.57;;;3.10;;
81544;SDS011;70990;50.618;7.346;2023-12-07T02:04:43;7.18;;;2.70;;
81544;SDS011;70990;50.618;7.346;2023-12-07T02:07:10;6.80;;;2.92;;
81544;SDS011;70990;50.618;7.346;2023-12-07T02:09:38;7.32;;;3.22;;
81544;SDS011;70990;50.618;7.346;2023-12-07T02:12:04;9.35;;;3.35;;
81544;SDS011;70990;50.618;7.346;2023-12-07T02:14:31;7.43;;;3.22;;
81544;SDS011;70990;50.618;7.346;2023-12-07T02:17:01;10.07;;;3.88;;
81544;SDS011;70990;50.618;7.346;2023-12-07T02:19:52;11.02;;;3.35;;
81544;SDS011;70990;50.618;7.346;2023-12-07T02:22:47;10.75;;;3.70;;
81544;SDS011;70990;50.618;7.346;2023-12-07T02:25:18;9.48;;;3.47;;
81544;SDS011;70990;50.618;7.346;2023-12-07T02:27:48;11.65;;;3.50;;
81544;SDS011;70990;50.618;7.346;2023-12-07T02:30:15;8.52;;;3.53;;
81544;SDS011;70990;50.618;7.346;2023-12-07T02:32:43;7.93;;;3.58;;
81544;SDS011;70990;50.618;7.346;2023-12-07T02:35:12;8.35;;;3.38;;
81544;SDS011;70990;50.618;7.346;2023-12-07T02:37:43;11.45;;;3.50;;
81544;SDS011;70990;50.618;7.346;2023-12-07T02:40:12;9.40;;;3.75;;
81544;SDS011;70990;50.618;7.346;2023-12-07T02:42:41;10.85;;;3.45;;
81544;SDS011;70990;50.618;7.346;2023-12-07T02:45:08;12.52;;;3.92;;
81544;SDS011;70990;50.618;7.346;2023-12-07T02:47:35;8.30;;;3.63;;
81544;SDS011;70990;50.618;7.346;2023-12-07T02:50:02;8.13;;;3.30;;
81544;SDS011;70990;50.618;7.346;2023-12-07T02:52:30;11.63;;;3.35;;
81544;SDS011;70990;50.618;7.346;2023-12-07T02:54:57;7.22;;;3.30;;
81544;SDS011;70990;50.618;7.346;2023-12-07T02:57:23;8.10;;;3.33;;
81544;SDS011;70990;50.618;7.346;2023-12-07T02:59:50;8.18;;;3.63;;
81544;SDS011;70990;50.618;7.346;2023-12-07T03:02:16;8.13;;;3.40;;
81544;SDS011;70990;50.618;7.346;2023-12-07T03:04:43;9.32;;;4.00;;
81544;SDS011;70990;50.618;7.346;2023-12-07T03:07:09;11.10;;;3.75;;
81544;SDS011;70990;50.618;7.346;2023-12-07T03:09:36;9.63;;;3.50;;
81544;SDS011;70990;50.618;7.346;2023-12-07T03:12:03;10.73;;;4.18;;
81544;SDS011;70990;50.618;7.346;2023-12-07T03:14:29;10.82;;;3.83;;
81544;SDS011;70990;50.618;7.346;2023-12-07T03:16:56;6.70;;;3.13;;
81544;SDS011;70990;50.618;7.346;2023-12-07T03:19:22;11.57;;;3.42;;
81544;SDS011;70990;50.618;7.346;2023-12-07T03:21:49;9.70;;;3.05;;
81544;SDS011;70990;50.618;7.346;2023-12-07T03:24:16;7.40;;;3.13;;
81544;SDS011;70990;50.618;7.346;2023-12-07T03:26:42;12.30;;;4.05;;
81544;SDS011;70990;50.618;7.346;2023-12-07T03:29:09;8.00;;;3.67;;
81544;SDS011;70990;50.618;7.346;2023-12-07T03:31:36;8.77;;;3.20;;
81544;SDS011;70990;50.618;7.346;2023-12-07T03:34:02;7.68;;;3.63;;
81544;SDS011;70990;50.618;7.346;2023-12-07T03:36:29;8.00;;;4.03;;
81544;SDS011;70990;50.618;7.346;2023-12-07T03:38:58;10.18;;;3.70;;
81544;SDS011;70990;50.618;7.346;2023-12-07T03:41:24;7.15;;;3.08;;
81544;SDS011;70990;50.618;7.346;2023-12-07T03:43:51;7.75;;;3.45;;
81544;SDS011;70990;50.618;7.346;2023-12-07T03:46:17;10.18;;;3.53;;
81544;SDS011;70990;50.618;7.346;2023-12-07T03:48:44;12.20;;;3.35;;
81544;SDS011;70990;50.618;7.346;2023-12-07T03:51:12;8.95;;;3.90;;
81544;SDS011;70990;50.618;7.346;2023-12-07T03:53:39;11.52;;;3.95;;
81544;SDS011;70990;50.618;7.346;2023-12-07T03:56:06;12.27;;;3.58;;
81544;SDS011;70990;50.618;7.346;2023-12-07T03:58:33;10.27;;;3.95;;
81544;SDS011;70990;50.618;7.346;2023-12-07T04:01:00;9.50;;;3.47;;
81544;SDS011;70990;50.618;7.346;2023-12-07T04:03:26;10.25;;;3.58;;
81544;SDS011;70990;50.618;7.346;2023-12-07T04:05:53;6.88;;;3.05;;
81544;SDS011;70990;50.618;7.346;2023-12-07T04:08:20;8.88;;;4.15;;
81544;SDS011;70990;50.618;7.346;2023-12-07T04:10:46;9.90;;;3.42;;
81544;SDS011;70990;50.618;7.346;2023-12-07T04:13:13;8.40;;;3.63;;
81544;SDS011;70990;50.618;7.346;2023-12-07T04:15:39;7.63;;;3.22;;
81544;SDS011;70990;50.618;7.346;2023-12-07T04:18:06;9.75;;;4.05;;
81544;SDS011;70990;50.618;7.346;2023-12-07T04:20:32;15.57;;;4.15;;
81544;SDS011;70990;50.618;7.346;2023-12-07T04:22:59;7.80;;;3.88;;
81544;SDS011;70990;50.618;7.346;2023-12-07T04:25:26;10.85;;;4.45;;
81544;SDS011;70990;50.618;7.346;2023-12-07T04:27:53;11.68;;;4.28;;
81544;SDS011;70990;50.618;7.346;2023-12-07T04:30:19;11.18;;;4.35;;
81544;SDS011;70990;50.618;7.346;2023-12-07T04:32:46;7.40;;;3.25;;
81544;SDS011;70990;50.618;7.346;2023-12-07T04:35:12;8.65;;;3.90;;
81544;SDS011;70990;50.618;7.346;2023-12-07T04:37:39;9.93;;;4.55;;
81544;SDS011;70990;50.618;7.346;2023-12-07T04:40:06;7.75;;;3.78;;
81544;SDS011;70990;50.618;7.346;2023-12-07T04:42:33;8.57;;;3.78;;
81544;SDS011;70990;50.618;7.346;2023-12-07T04:44:59;11.25;;;4.05;;
81544;SDS011;70990;50.618;7.346;2023-12-07T04:47:26;11.80;;;4.70;;
81544;SDS011;70990;50.618;7.346;2023-12-07T04:49:53;5.60;;;2.58;;
81544;SDS011;70990;50.618;7.346;2023-12-07T04:52:19;9.25;;;3.80;;
81544;SDS011;70990;50.618;7.346;2023-12-07T04:54:48;13.48;;;5.47;;
81544;SDS011;70990;50.618;7.346;2023-12-07T04:57:15;4.65;;;2.42;;
81544;SDS011;70990;50.618;7.346;2023-12-07T04:59:42;13.07;;;5.60;;
81544;SDS011;70990;50.618;7.346;2023-12-07T05:02:08;4.20;;;2.55;;
81544;SDS011;70990;50.618;7.346;2023-12-07T05:04:35;7.35;;;3.75;;
81544;SDS011;70990;50.618;7.346;2023-12-07T05:07:02;18.75;;;4.35;;
81544;SDS011;70990;50.618;7.346;2023-12-07T05:09:29;17.70;;;4.80;;
81544;SDS011;70990;50.618;7.346;2023-12-07T05:11:55;17.98;;;6.38;;
81544;SDS011;70990;50.618;7.346;2023-12-07T05:14:21;4.20;;;1.85;;
81544;SDS011;70990;50.618;7.346;2023-12-07T05:16:48;20.17;;;6.03;;
81544;SDS011;70990;50.618;7.346;2023-12-07T05:19:15;27.27;;;6.30;;
81544;SDS011;70990;50.618;7.346;2023-12-07T05:21:41;19.40;;;4.35;;
81544;SDS011;70990;50.618;7.346;2023-12-07T05:24:08;14.10;;;2.95;;
81544;SDS011;70990;50.618;7.346;2023-12-07T05:26:34;21.85;;;5.72;;
81544;SDS011;70990;50.618;7.346;2023-12-07T05:29:01;39.35;;;7.85;;
81544;SDS011;70990;50.618;7.346;2023-12-07T05:31:28;26.52;;;3.67;;
81544;SDS011;70990;50.618;7.346;2023-12-07T05:33:55;28.88;;;6.53;;
81544;SDS011;70990;50.618;7.346;2023-12-07T05:36:22;27.55;;;4.53;;
81544;SDS011;70990;50.618;7.346;2023-12-07T05:38:48;25.48;;;6.43;;
81544;SDS011;70990;50.618;7.346;2023-12-07T05:41:16;10.95;;;3.22;;
81544;SDS011;70990;50.618;7.346;2023-12-07T05:43:42;33.72;;;6.18;;
81544;SDS011;70990;50.618;7.346;2023-12-07T05:46:10;14.18;;;6.32;;
81544;SDS011;70990;50.618;7.346;2023-12-07T05:48:37;13.57;;;3.85;;
81544;SDS011;70990;50.618;7.346;2023-12-07T05:51:04;7.07;;;2.72;;
81544;SDS011;70990;50.618;7.346;2023-12-07T05:53:30;24.83;;;6.18;;
81544;SDS011;70990;50.618;7.346;2023-12-07T05:55:57;24.23;;;8.23;;
81544;SDS011;70990;50.618;7.346;2023-12-07T05:58:25;21.17;;;7.72;;
81544;SDS011;70990;50.618;7.346;2023-12-07T06:00:52;17.38;;;7.47;;
81544;SDS011;70990;50.618;7.346;2023-12-07T06:03:18;21.85;;;6.20;;
81544;SDS011;70990;50.618;7.346;2023-12-07T06:05:45;27.85;;;8.55;;
81544;SDS011;70990;50.618;7.346;2023-12-07T06:08:14;23.77;;;8.55;;
81544;SDS011;70990;50.618;7.346;2023-12-07T06:10:40;21.70;;;9.13;;
81544;SDS011;70990;50.618;7.346;2023-12-07T06:13:07;10.63;;;3.92;;
81544;SDS011;70990;50.618;7.346;2023-12-07T06:15:34;11.65;;;5.25;;
81544;SDS011;70990;50.618;7.346;2023-12-07T06:18:00;18.33;;;7.68;;
81544;SDS011;70990;50.618;7.346;2023-12-07T06:20:27;25.27;;;6.28;;
81544;SDS011;70990;50.618;7.346;2023-12-07T06:22:53;23.10;;;6.68;;
81544;SDS011;70990;50.618;7.346;2023-12-07T06:25:19;25.13;;;8.80;;
81544;SDS011;70990;50.618;7.346;2023-12-07T06:27:46;23.20;;;9.27;;
81544;SDS011;70990;50.618;7.346;2023-12-07T06:30:14;22.27;;;5.57;;
81544;SDS011;70990;50.618;7.346;2023-12-07T06:32:41;29.48;;;5.55;;
81544;SDS011;70990;50.618;7.346;2023-12-07T06:35:07;22.77;;;4.63;;
81544;SDS011;70990;50.618;7.346;2023-12-07T06:37:34;35.45;;;6.55;;
81544;SDS011;70990;50.618;7.346;2023-12-07T06:40:01;52.85;;;9.35;;
81544;SDS011;70990;50.618;7.346;2023-12-07T06:42:27;61.63;;;6.70;;
81544;SDS011;70990;50.618;7.346;2023-12-07T06:44:54;67.80;;;9.68;;
81544;SDS011;70990;50.618;7.346;2023-12-07T06:47:20;38.80;;;8.43;;
81544;SDS011;70990;50.618;7.346;2023-12-07T06:49:47;46.60;;;10.07;;
81544;SDS011;70990;50.618;7.346;2023-12-07T06:52:18;72.70;;;11.85;;
81544;SDS011;70990;50.618;7.346;2023-12-07T06:54:45;25.83;;;8.80;;
81544;SDS011;70990;50.618;7.346;2023-12-07T06:57:12;31.77;;;10.27;;
81544;SDS011;70990;50.618;7.346;2023-12-07T06:59:38;37.67;;;10.68;;
81544;SDS011;70990;50.618;7.346;2023-12-07T07:02:05;18.85;;;8.20;;
81544;SDS011;70990;50.618;7.346;2023-12-07T07:04:32;12.98;;;4.88;;
81544;SDS011;70990;50.618;7.346;2023-12-07T07:06:58;24.70;;;8.90;;
81544;SDS011;70990;50.618;7.346;2023-12-07T07:09:25;16.52;;;5.65;;
81544;SDS011;70990;50.618;7.346;2023-12-07T07:11:51;19.88;;;8.18;;
81544;SDS011;70990;50.618;7.346;2023-12-07T07:14:18;18.52;;;7.45;;
81544;SDS011;70990;50.618;7.346;2023-12-07T07:16:45;11.82;;;4.80;;
81544;SDS011;70990;50.618;7.346;2023-12-07T07:19:11;9.10;;;5.07;;
81544;SDS011;70990;50.618;7.346;2023-12-07T07:21:38;17.30;;;6.70;;
81544;SDS011;70990;50.618;7.346;2023-12-07T07:24:04;17.98;;;6.57;;
81544;SDS011;70990;50.618;7.346;2023-12-07T07:26:32;14.82;;;6.45;;
81544;SDS011;70990;50.618;7.346;2023-12-07T07:28:59;22.38;;;7.82;;
81544;SDS011;70990;50.618;7.346;2023-12-07T07:31:25;20.92;;;7.63;;
81544;SDS011;70990;50.618;7.346;2023-12-07T07:33:52;20.45;;;8.63;;
81544;SDS011;70990;50.618;7.346;2023-12-07T07:36:26;21.85;;;9.02;;
81544;SDS011;70990;50.618;7.346;2023-12-07T07:38:53;23.55;;;7.70;;
81544;SDS011;70990;50.618;7.346;2023-12-07T07:41:20;20.10;;;8.77;;
81544;SDS011;70990;50.618;7.346;2023-12-07T07:43:46;11.75;;;5.75;;
81544;SDS011;70990;50.618;7.346;2023-12-07T07:46:13;17.58;;;7.57;;
81544;SDS011;70990;50.618;7.346;2023-12-07T07:48:41;25.85;;;8.85;;
81544;SDS011;70990;50.618;7.346;2023-12-07T07:51:07;23.85;;;8.73;;
81544;SDS011;70990;50.618;7.346;2023-12-07T07:53:34;18.27;;;7.40;;
81544;SDS011;70990;50.618;7.346;2023-12-07T07:56:00;21.38;;;7.72;;
81544;SDS011;70990;50.618;7.346;2023-12-07T07:58:27;17.90;;;7.97;;
81544;SDS011;70990;50.618;7.346;2023-12-07T08:00:53;21.77;;;7.45;;
81544;SDS011;70990;50.618;7.346;2023-12-07T08:03:20;16.63;;;5.97;;
81544;SDS011;70990;50.618;7.346;2023-12-07T08:05:47;18.70;;;7.05;;
81544;SDS011;70990;50.618;7.346;2023-12-07T08:08:14;12.77;;;5.68;;
81544;SDS011;70990;50.618;7.346;2023-12-07T08:10:40;16.10;;;7.07;;
81544;SDS011;70990;50.618;7.346;2023-12-07T08:13:21;9.73;;;4.43;;
81544;SDS011;70990;50.618;7.346;2023-12-07T08:15:48;22.15;;;7.93;;
81544;SDS011;70990;50.618;7.346;2023-12-07T08:18:15;21.73;;;8.05;;
81544;SDS011;70990;50.618;7.346;2023-12-07T08:20:42;19.60;;;7.43;;
81544;SDS011;70990;50.618;7.346;2023-12-07T08:23:08;18.33;;;7.57;;
81544;SDS011;70990;50.618;7.346;2023-12-07T08:25:34;19.33;;;7.60;;
81544;SDS011;70990;50.618;7.346;2023-12-07T08:28:01;13.35;;;6.55;;
81544;SDS011;70990;50.618;7.346;2023-12-07T08:30:28;17.80;;;7.03;;
81544;SDS011;70990;50.618;7.346;2023-12-07T08:32:54;16.25;;;6.60;;
81544;SDS011;70990;50.618;7.346;2023-12-07T08:35:21;11.88;;;4.95;;
81544;SDS011;70990;50.618;7.346;2023-12-07T08:37:47;10.50;;;4.90;;
81544;SDS011;70990;50.618;7.346;2023-12-07T08:40:14;13.25;;;5.85;;
81544;SDS011;70990;50.618;7.346;2023-12-07T08:42:44;10.65;;;4.60;;
81544;SDS011;70990;50.618;7.346;2023-12-07T08:45:14;13.90;;;5.55;;
81544;SDS011;70990;50.618;7.346;2023-12-07T08:47:41;12.55;;;4.82;;
81544;SDS011;70990;50.618;7.346;2023-12-07T08:50:08;18.65;;;6.70;;
81544;SDS011;70990;50.618;7.346;2023-12-07T08:52:35;16.63;;;7.38;;
81544;SDS011;70990;50.618;7.346;2023-12-07T08:57:39;24.00;;;5.80;;
81544;SDS011;70990;50.618;7.346;2023-12-07T09:00:06;15.40;;;7.05;;
81544;SDS011;70990;50.618;7.346;2023-12-07T09:02:33;6.72;;;2.75;;
81544;SDS011;70990;50.618;7.346;2023-12-07T09:05:12;14.50;;;5.65;;
81544;SDS011;70990;50.618;7.346;2023-12-07T09:07:39;12.13;;;5.25;;
81544;SDS011;70990;50.618;7.346;2023-12-07T09:10:05;13.80;;;6.53;;
81544;SDS011;70990;50.618;7.346;2023-12-07T09:12:33;16.58;;;6.88;;
81544;SDS011;70990;50.618;7.346;2023-12-07T09:15:04;16.42;;;6.00;;
81544;SDS011;70990;50.618;7.346;2023-12-07T09:17:32;15.85;;;6.00;;
81544;SDS011;70990;50.618;7.346;2023-12-07T09:19:58;14.98;;;6.13;;
81544;SDS011;70990;50.618;7.346;2023-12-07T09:22:25;15.07;;;6.25;;
81544;SDS011;70990;50.618;7.346;2023-12-07T09:25:02;18.83;;;6.90;;
81544;SDS011;70990;50.618;7.346;2023-12-07T09:27:29;10.48;;;4.25;;
81544;SDS011;70990;50.618;7.346;2023-12-07T09:29:56;14.10;;;5.22;;
81544;SDS011;70990;50.618;7.346;2023-12-07T09:32:22;14.60;;;5.70;;
81544;SDS011;70990;50.618;7.346;2023-12-07T09:35:01;24.70;;;6.07;;
81544;SDS011;70990;50.618;7.346;2023-12-07T09:37:28;16.85;;;7.43;;
81544;SDS011;70990;50.618;7.346;2023-12-07T09:39:54;16.08;;;6.60;;
81544;SDS011;70990;50.618;7.346;2023-12-07T09:42:21;14.88;;;6.03;;
81544;SDS011;70990;50.618;7.346;2023-12-07T09:44:48;15.85;;;5.95;;
81544;SDS011;70990;50.618;7.346;2023-12-07T09:47:15;16.63;;;7.03;;
81544;SDS011;70990;50.618;7.346;2023-12-07T09:49:53;18.23;;;6.05;;
81544;SDS011;70990;50.618;7.346;2023-12-07T09:52:21;16.45;;;6.70;;
81544;SDS011;70990;50.618;7.346;2023-12-07T09:54:48;13.98;;;5.55;;
81544;SDS011;70990;50.618;7.346;2023-12-07T09:57:17;11.10;;;5.72;;
81544;SDS011;70990;50.618;7.346;2023-12-07T09:59:44;12.75;;;5.40;;
81544;SDS011;70990;50.618;7.346;2023-12-07T10:02:10;13.18;;;5.75;;
81544;SDS011;70990;50.618;7.346;2023-12-07T10:04:37;9.70;;;5.55;;
81544;SDS011;70990;50.618;7.346;2023-12-07T10:07:04;9.15;;;3.78;;
81544;SDS011;70990;50.618;7.346;2023-12-07T10:09:30;16.08;;;6.68;;
81544;SDS011;70990;50.618;7.346;2023-12-07T10:12:03;10.57;;;4.82;;
81544;SDS011;70990;50.618;7.346;2023-12-07T10:14:31;16.13;;;5.95;;
81544;SDS011;70990;50.618;7.346;2023-12-07T10:16:59;16.88;;;7.28;;
81544;SDS011;70990;50.618;7.346;2023-12-07T10:19:25;7.75;;;3.53;;
81544;SDS011;70990;50.618;7.346;2023-12-07T10:21:58;16.45;;;6.07;;
81544;SDS011;70990;50.618;7.346;2023-12-07T10:24:25;7.40;;;3.90;;
81544;SDS011;70990;50.618;7.346;2023-12-07T10:26:51;11.57;;;5.38;;
81544;SDS011;70990;50.618;7.346;2023-12-07T10:29:28;9.30;;;3.67;;
81544;SDS011;70990;50.618;7.346;2023-12-07T10:31:59;15.27;;;4.57;;
81544;SDS011;70990;50.618;7.346;2023-12-07T10:34:27;13.75;;;7.13;;
81544;SDS011;70990;50.618;7.346;2023-12-07T10:36:53;10.15;;;3.90;;
81544;SDS011;70990;50.618;7.346;2023-12-07T10:39:20;9.60;;;4.88;;
81544;SDS011;70990;50.618;7.346;2023-12-07T10:41:58;11.90;;;6.10;;
81544;SDS011;70990;50.618;7.346;2023-12-07T10:44:28;8.65;;;3.90;;
81544;SDS011;70990;50.618;7.346;2023-12-07T10:46:55;12.93;;;5.00;;
81544;SDS011;70990;50.618;7.346;2023-12-07T10:49:23;11.55;;;4.82;;
81544;SDS011;70990;50.618;7.346;2023-12-07T10:52:00;11.77;;;5.18;;
81544;SDS011;70990;50.618;7.346;2023-12-07T10:54:58;20.40;;;5.80;;
81544;SDS011;70990;50.618;7.346;2023-12-07T10:57:19;12.15;;;4.53;;
81544;SDS011;70990;50.618;7.346;2023-12-07T10:59:48;14.60;;;5.97;;
81544;SDS011;70990;50.618;7.346;2023-12-07T11:02:16;12.20;;;5.72;;
81544;SDS011;70990;50.618;7.346;2023-12-07T11:04:47;10.32;;;4.43;;
81544;SDS011;70990;50.618;7.346;2023-12-07T11:07:16;11.55;;;5.45;;
81544;SDS011;70990;50.618;7.346;2023-12-07T11:09:47;5.90;;;2.58;;
81544;SDS011;70990;50.618;7.346;2023-12-07T11:15:37;10.35;;;3.42;;
81544;SDS011;70990;50.618;7.346;2023-12-07T11:18:04;10.88;;;5.20;;
81544;SDS011;70990;50.618;7.346;2023-12-07T11:20:41;7.68;;;4.18;;
81544;SDS011;70990;50.618;7.346;2023-12-07T11:23:08;11.73;;;4.25;;
81544;SDS011;70990;50.618;7.346;2023-12-07T11:25:35;11.25;;;4.20;;
81544;SDS011;70990;50.618;7.346;2023-12-07T11:28:03;13.13;;;4.43;;
81544;SDS011;70990;50.618;7.346;2023-12-07T11:30:35;7.30;;;3.15;;
81544;SDS011;70990;50.618;7.346;2023-12-07T11:33:05;9.88;;;5.05;;
81544;SDS011;70990;50.618;7.346;2023-12-07T11:35:33;14.05;;;5.07;;
81544;SDS011;70990;50.618;7.346;2023-12-07T11:38:07;13.35;;;6.25;;
81544;SDS011;70990;50.618;7.346;2023-12-07T11:40:35;11.63;;;5.15;;
81544;SDS011;70990;50.618;7.346;2023-12-07T11:43:02;9.20;;;3.90;;
81544;SDS011;70990;50.618;7.346;2023-12-07T11:45:35;12.63;;;4.55;;
81544;SDS011;70990;50.618;7.346;2023-12-07T11:48:13;11.60;;;5.22;;
81544;SDS011;70990;50.618;7.346;2023-12-07T11:53:35;9.88;;;5.35;;
81544;SDS011;70990;50.618;7.346;2023-12-07T11:56:03;16.65;;;5.72;;
81544;SDS011;70990;50.618;7.346;2023-12-07T11:58:31;12.95;;;4.95;;
81544;SDS011;70990;50.618;7.346;2023-12-07T12:01:04;13.27;;;6.35;;
81544;SDS011;70990;50.618;7.346;2023-12-07T12:03:31;7.10;;;3.53;;
81544;SDS011;70990;50.618;7.346;2023-12-07T12:05:58;14.98;;;5.22;;
81544;SDS011;70990;50.618;7.346;2023-12-07T12:08:25;9.95;;;3.58;;
81544;SDS011;70990;50.618;7.346;2023-12-07T12:10:51;10.10;;;4.35;;
81544;SDS011;70990;50.618;7.346;2023-12-07T12:13:18;14.85;;;3.67;;
81544;SDS011;70990;50.618;7.346;2023-12-07T12:15:45;7.30;;;3.72;;
81544;SDS011;70990;50.618;7.346;2023-12-07T12:18:12;11.73;;;5.30;;
81544;SDS011;70990;50.618;7.346;2023-12-07T12:20:39;11.73;;;5.65;;
81544;SDS011;70990;50.618;7.346;2023-12-07T12:23:05;14.50;;;5.55;;
81544;SDS011;70990;50.618;7.346;2023-12-07T12:25:32;12.05;;;5.25;;
81544;SDS011;70990;50.618;7.346;2023-12-07T12:28:03;7.65;;;3.03;;
81544;SDS011;70990;50.618;7.346;2023-12-07T12:30:30;10.75;;;4.03;;
81544;SDS011;70990;50.618;7.346;2023-12-07T12:32:58;9.63;;;4.97;;
81544;SDS011;70990;50.618;7.346;2023-12-07T12:35:25;10.40;;;3.97;;
81544;SDS011;70990;50.618;7.346;2023-12-07T12:37:52;9.75;;;4.15;;
81544;SDS011;70990;50.618;7.346;2023-12-07T12:40:19;10.93;;;4.05;;
81544;SDS011;70990;50.618;7.346;2023-12-07T12:42:47;10.23;;;4.78;;
81544;SDS011;70990;50.618;7.346;2023-12-07T12:45:22;4.45;;;2.40;;
81544;SDS011;70990;50.618;7.346;2023-12-07T12:47:49;12.35;;;4.95;;
81544;SDS011;70990;50.618;7.346;2023-12-07T12:53:05;12.00;;;5.72;;
81544;SDS011;70990;50.618;7.346;2023-12-07T12:55:36;12.77;;;3.55;;
81544;SDS011;70990;50.618;7.346;2023-12-07T12:58:05;10.10;;;4.55;;
81544;SDS011;70990;50.618;7.346;2023-12-07T13:00:33;11.20;;;4.78;;
81544;SDS011;70990;50.618;7.346;2023-12-07T13:03:01;12.05;;;4.97;;
81544;SDS011;70990;50.618;7.346;2023-12-07T13:05:29;16.30;;;5.97;;
81544;SDS011;70990;50.618;7.346;2023-12-07T13:07:56;14.63;;;5.68;;
81544;SDS011;70990;50.618;7.346;2023-12-07T13:10:39;9.20;;;4.28;;
81544;SDS011;70990;50.618;7.346;2023-12-07T13:13:06;6.35;;;2.55;;
81544;SDS011;70990;50.618;7.346;2023-12-07T13:15:32;12.82;;;5.13;;
81544;SDS011;70990;50.618;7.346;2023-12-07T13:17:59;12.80;;;5.32;;
81544;SDS011;70990;50.618;7.346;2023-12-07T13:20:27;9.80;;;4.63;;
81544;SDS011;70990;50.618;7.346;2023-12-07T13:22:55;14.27;;;5.70;;
81544;SDS011;70990;50.618;7.346;2023-12-07T13:25:22;10.02;;;4.50;;
81544;SDS011;70990;50.618;7.346;2023-12-07T13:27:48;14.68;;;5.22;;
81544;SDS011;70990;50.618;7.346;2023-12-07T13:30:15;12.25;;;5.05;;
81544;SDS011;70990;50.618;7.346;2023-12-07T13:32:41;12.25;;;6.00;;
81544;SDS011;70990;50.618;7.346;2023-12-07T13:35:08;21.08;;;5.70;;
81544;SDS011;70990;50.618;7.346;2023-12-07T13:37:35;14.60;;;6.90;;
81544;SDS011;70990;50.618;7.346;2023-12-07T13:40:02;4.22;;;2.33;;
81544;SDS011;70990;50.618;7.346;2023-12-07T13:42:29;14.85;;;6.57;;
81544;SDS011;70990;50.618;7.346;2023-12-07T13:44:57;13.07;;;5.55;;
81544;SDS011;70990;50.618;7.346;2023-12-07T13:47:24;13.32;;;6.32;;
81544;SDS011;70990;50.618;7.346;2023-12-07T13:49:51;11.43;;;4.68;;
81544;SDS011;70990;50.618;7.346;2023-12-07T13:52:18;12.07;;;5.32;;
81544;SDS011;70990;50.618;7.346;2023-12-07T13:54:45;7.85;;;3.20;;
81544;SDS011;70990;50.618;7.346;2023-12-07T13:57:19;12.77;;;5.90;;
81544;SDS011;70990;50.618;7.346;2023-12-07T13:59:47;14.05;;;5.60;;
81544;SDS011;70990;50.618;7.346;2023-12-07T14:02:14;15.38;;;6.18;;
81544;SDS011;70990;50.618;7.346;2023-12-07T14:04:40;12.35;;;5.65;;
81544;SDS011;70990;50.618;7.346;2023-12-07T14:07:11;16.08;;;6.15;;
81544;SDS011;70990;50.618;7.346;2023-12-07T14:09:42;12.40;;;5.88;;
81544;SDS011;70990;50.618;7.346;2023-12-07T14:12:23;12.48;;;5.57;;
81544;SDS011;70990;50.618;7.346;2023-12-07T14:14:50;12.77;;;5.63;;
81544;SDS011;70990;50.618;7.346;2023-12-07T14:17:16;17.23;;;6.97;;
81544;SDS011;70990;50.618;7.346;2023-12-07T14:19:45;10.43;;;4.80;;
81544;SDS011;70990;50.618;7.346;2023-12-07T14:22:12;16.45;;;6.60;;
81544;SDS011;70990;50.618;7.346;2023-12-07T14:24:39;13.30;;;5.00;;
81544;SDS011;70990;50.618;7.346;2023-12-07T14:27:06;20.02;;;7.45;;
81544;SDS011;70990;50.618;7.346;2023-12-07T14:29:33;16.33;;;6.93;;
81544;SDS011;70990;50.618;7.346;2023-12-07T14:32:00;10.48;;;4.68;;
81544;SDS011;70990;50.618;7.346;2023-12-07T14:34:30;18.52;;;5.53;;
81544;SDS011;70990;50.618;7.346;2023-12-07T14:37:01;12.52;;;5.35;;
81544;SDS011;70990;50.618;7.346;2023-12-07T14:39:30;8.85;;;3.58;;
81544;SDS011;70990;50.618;7.346;2023-12-07T14:41:57;19.17;;;6.43;;
81544;SDS011;70990;50.618;7.346;2023-12-07T14:44:24;15.38;;;5.85;;
81544;SDS011;70990;50.618;7.346;2023-12-07T14:46:55;15.55;;;5.35;;
81544;SDS011;70990;50.618;7.346;2023-12-07T14:49:22;14.77;;;6.18;;
81544;SDS011;70990;50.618;7.346;2023-12-07T14:51:49;14.18;;;5.15;;
81544;SDS011;70990;50.618;7.346;2023-12-07T14:54:16;13.60;;;5.45;;